Portada
METAR-TAF:

METAR-TAF

Aeroports :

Vineyard Haven, Massachusetts, Estats Units d'Amèrica

latitud: 41-23-32N, longitud: 070-37-00W, altitud: 20 m

Observació

L'informe es va fer fa 41 minuts, a les 15:00 UTC
Vent 11 kt del Sud
Temperatura 23°C
Humitat 78%
Pressió 1014 hPa
Visibilitat: 16.1 km
Cel ennuvolat a una alçada de 1700 ft
Cel ennuvolat a una alçada de 2800 ft
Cel ennuvolat a una alçada de 9000 ft

METAR: KMVY 251500Z 17011KT 10SM BKN017 BKN028 BKN090 23/19 A2993 RMK AO2 T02280194

Hora: 11:41 (15:41 UTC)


TAF: manca

Observacions i pronòstics meteorològics de més de 4000 aeroports (METAR i TAF).

Les estacions disponibles són els punts grocs i vermells al mapa.

Posi el ratolí al punt desitjat per veure el nom de l'estació.

Feu clic per veure les observacions i els pronòstics meteorològics.

Per canviar el mapa: feu clic els botons verds amb una creu de color negre per apropar; al botó verd amb un guió per allunyar la imatge; o en les fletxes verdes per a mapes adjacents.


METAR-TAF: